createdAt,value
2022-10-30T00:02:22.983Z,84.68
2022-10-30T00:04:50.709Z,84.72
2022-10-30T00:07:19.694Z,84.50
2022-10-30T00:09:47.354Z,85.34
2022-10-30T00:12:15.009Z,85.13
2022-10-30T00:14:42.652Z,84.87
2022-10-30T00:17:10.291Z,84.54
2022-10-30T00:19:37.907Z,85.59
2022-10-30T00:24:33.442Z,86.77
2022-10-30T00:27:01.041Z,86.56
2022-10-30T00:29:28.710Z,85.71
2022-10-30T00:31:56.360Z,85.54
2022-10-30T00:34:24.029Z,85.67
2022-10-30T00:36:51.658Z,86.25
2022-10-30T00:39:19.497Z,86.57
2022-10-30T00:41:48.540Z,86.74
2022-10-30T00:44:39.067Z,87.38
2022-10-30T00:47:13.308Z,86.92
2022-10-30T00:49:51.359Z,86.49
2022-10-30T00:52:20.013Z,86.77
2022-10-30T00:54:47.863Z,86.56
2022-10-30T00:57:17.032Z,86.13
2022-10-30T00:59:44.697Z,87.15
2022-10-30T01:02:12.683Z,87.41
2022-10-30T01:04:42.058Z,87.76
2022-10-30T01:07:12.219Z,87.46
2022-10-30T01:09:41.541Z,86.76
2022-10-30T01:12:09.347Z,87.61
2022-10-30T01:14:42.025Z,87.39
2022-10-30T01:17:46.456Z,86.96
2022-10-30T01:20:30.389Z,87.36
2022-10-30T01:23:09.868Z,87.47
2022-10-30T01:25:50.805Z,86.98
2022-10-30T01:28:35.044Z,87.00
2022-10-30T01:31:17.561Z,87.46
2022-10-30T01:33:57.020Z,88.11
2022-10-30T01:36:31.595Z,87.97
2022-10-30T01:39:04.181Z,88.24
2022-10-30T01:41:31.832Z,88.12
2022-10-30T01:44:03.651Z,87.22
2022-10-30T01:46:50.913Z,86.51
2022-10-30T01:49:34.093Z,86.87
2022-10-30T01:52:12.161Z,87.05
2022-10-30T01:54:47.399Z,88.01
2022-10-30T01:57:24.500Z,88.86
2022-10-30T01:59:57.852Z,89.42
2022-10-30T02:02:27.279Z,89.23
2022-10-30T02:04:55.075Z,89.26
2022-10-30T02:07:23.386Z,88.98
2022-10-30T02:09:52.360Z,88.31
2022-10-30T02:12:20.420Z,88.49
2022-10-30T02:14:50.740Z,89.02
2022-10-30T02:17:19.810Z,89.28
2022-10-30T02:19:48.894Z,89.19
2022-10-30T02:22:18.978Z,89.46
2022-10-30T02:24:46.955Z,89.60
2022-10-30T02:27:14.676Z,89.61
2022-10-30T02:29:42.336Z,89.54
2022-10-30T02:32:09.966Z,89.40
2022-10-30T02:34:37.842Z,89.72
2022-10-30T02:37:05.478Z,89.73
2022-10-30T02:39:34.407Z,89.58
2022-10-30T02:42:02.498Z,89.52
2022-10-30T02:44:30.239Z,89.32
2022-10-30T02:46:58.071Z,89.84
2022-10-30T02:49:25.679Z,89.63
2022-10-30T02:51:53.346Z,89.48
2022-10-30T02:54:20.914Z,89.88
2022-10-30T02:56:49.876Z,89.39
2022-10-30T02:59:17.490Z,89.63
2022-10-30T03:01:45.206Z,89.57
2022-10-30T03:04:12.884Z,89.55
2022-10-30T03:06:40.510Z,90.08
2022-10-30T03:09:08.230Z,90.02
2022-10-30T03:11:36.123Z,90.51
2022-10-30T03:14:05.070Z,90.51
2022-10-30T03:16:33.649Z,90.28
2022-10-30T03:19:01.264Z,90.15
2022-10-30T03:21:29.787Z,89.74
2022-10-30T03:23:57.678Z,89.87
2022-10-30T03:26:25.259Z,89.04
2022-10-30T03:28:52.998Z,89.21
2022-10-30T03:31:22.011Z,89.72
2022-10-30T03:33:49.674Z,89.32
2022-10-30T03:36:17.799Z,89.57
2022-10-30T03:38:45.724Z,89.20
2022-10-30T03:41:13.392Z,89.65
2022-10-30T03:43:41.084Z,89.33
2022-10-30T03:46:10.501Z,89.42
2022-10-30T03:48:39.594Z,88.28
2022-10-30T03:51:07.764Z,88.10
2022-10-30T03:53:35.417Z,88.57
2022-10-30T03:56:04.969Z,88.63
2022-10-30T03:58:32.640Z,88.93
2022-10-30T04:01:04.629Z,88.11
2022-10-30T04:03:32.615Z,86.50
2022-10-30T04:06:01.591Z,86.36
2022-10-30T04:08:29.291Z,86.92
2022-10-30T04:10:57.030Z,86.89
2022-10-30T04:13:25.125Z,87.20
2022-10-30T04:15:57.204Z,87.39
2022-10-30T04:18:25.771Z,88.13
2022-10-30T04:20:53.451Z,87.91
2022-10-30T04:23:23.375Z,87.28
2022-10-30T04:25:51.031Z,88.06
2022-10-30T04:28:18.743Z,88.10
2022-10-30T04:30:46.997Z,88.27
2022-10-30T04:33:15.250Z,87.34
2022-10-30T04:35:43.608Z,86.31
2022-10-30T04:38:13.236Z,87.05
2022-10-30T04:40:44.086Z,87.62
2022-10-30T04:43:12.908Z,88.08
2022-10-30T04:45:41.241Z,87.54
2022-10-30T04:48:11.981Z,88.06
2022-10-30T04:50:39.848Z,88.27
2022-10-30T04:53:09.586Z,88.26
2022-10-30T04:55:37.184Z,88.41
2022-10-30T04:58:07.945Z,88.38
2022-10-30T05:00:35.558Z,87.95
2022-10-30T05:03:03.614Z,87.89
2022-10-30T05:05:32.255Z,88.05
2022-10-30T05:08:00.426Z,87.96
2022-10-30T05:10:28.624Z,88.13
2022-10-30T05:12:56.704Z,87.57
2022-10-30T05:15:25.796Z,86.45
2022-10-30T05:17:54.243Z,87.42
2022-10-30T05:20:22.138Z,87.47
2022-10-30T05:22:55.446Z,87.25
2022-10-30T05:25:23.415Z,87.71
2022-10-30T05:27:51.134Z,87.01
2022-10-30T05:30:18.736Z,86.83
2022-10-30T05:32:47.819Z,86.94
2022-10-30T05:35:15.664Z,86.76
2022-10-30T05:37:43.425Z,86.66
2022-10-30T05:40:12.148Z,86.68
2022-10-30T05:42:45.606Z,86.93
2022-10-30T05:45:13.414Z,87.10
2022-10-30T05:47:41.033Z,86.81
2022-10-30T05:50:11.571Z,86.98
2022-10-30T05:52:39.454Z,86.74
2022-10-30T05:55:07.796Z,86.40
2022-10-30T05:57:35.412Z,86.35
2022-10-30T06:00:03.037Z,86.28
2022-10-30T06:02:30.781Z,86.84
2022-10-30T06:04:58.451Z,86.54
2022-10-30T06:07:27.460Z,86.40
2022-10-30T06:09:55.024Z,84.35
2022-10-30T06:13:04.290Z,83.80
2022-10-30T06:15:33.699Z,83.81
2022-10-30T06:18:02.076Z,83.89
2022-10-30T06:20:31.427Z,83.40
2022-10-30T06:23:00.574Z,83.30
2022-10-30T06:28:39.415Z,78.46
2022-10-30T06:31:09.945Z,79.70
2022-10-30T06:33:38.048Z,80.05
2022-10-30T06:36:06.670Z,81.25
2022-10-30T06:38:34.550Z,81.74
2022-10-30T06:41:02.693Z,82.84
2022-10-30T06:43:30.483Z,83.04
2022-10-30T06:46:00.161Z,83.82
2022-10-30T06:48:28.274Z,83.99
2022-10-30T06:50:56.720Z,83.48
2022-10-30T06:53:25.156Z,84.01
2022-10-30T06:55:58.987Z,83.93
2022-10-30T06:58:28.107Z,83.79
2022-10-30T07:00:57.250Z,83.38
2022-10-30T07:03:26.404Z,83.91
2022-10-30T07:05:54.149Z,83.87
2022-10-30T07:08:21.956Z,83.35
2022-10-30T07:10:49.763Z,82.87
2022-10-30T07:13:17.908Z,83.08
2022-10-30T07:15:45.727Z,83.11
2022-10-30T07:18:13.480Z,82.40
2022-10-30T07:20:42.598Z,82.44
2022-10-30T07:23:10.427Z,82.24
2022-10-30T07:25:38.223Z,82.40
2022-10-30T07:28:06.251Z,82.18
2022-10-30T07:30:34.148Z,81.70
2022-10-30T07:33:04.701Z,80.32
2022-10-30T07:35:34.554Z,80.86
2022-10-30T07:38:08.165Z,80.35
2022-10-30T07:40:36.021Z,79.49
2022-10-30T07:43:05.675Z,79.06
2022-10-30T07:45:34.123Z,79.50
2022-10-30T07:48:02.412Z,78.80
2022-10-30T07:50:30.987Z,79.10
2022-10-30T07:52:59.459Z,78.44
2022-10-30T07:55:28.560Z,78.23
2022-10-30T07:57:56.807Z,78.15
2022-10-30T08:00:24.917Z,77.38
2022-10-30T08:02:57.033Z,77.60
2022-10-30T08:05:28.893Z,78.04
2022-10-30T08:07:58.718Z,77.58
2022-10-30T08:10:28.480Z,77.32
2022-10-30T08:12:56.290Z,77.16
2022-10-30T08:15:24.396Z,76.92
2022-10-30T08:17:53.287Z,76.73
2022-10-30T08:20:24.965Z,77.12
2022-10-30T08:22:55.010Z,76.66
2022-10-30T08:25:26.203Z,76.60
2022-10-30T08:27:59.436Z,76.50
2022-10-30T08:30:30.087Z,75.87
2022-10-30T08:32:59.594Z,76.07
2022-10-30T08:35:27.712Z,75.97
2022-10-30T08:37:57.110Z,75.65
2022-10-30T08:40:25.567Z,75.92
2022-10-30T08:42:56.442Z,75.90
2022-10-30T08:45:29.935Z,75.59
2022-10-30T08:47:59.899Z,75.65
2022-10-30T08:50:28.566Z,75.13
2022-10-30T08:52:56.772Z,74.97
2022-10-30T08:55:25.016Z,75.01
2022-10-30T08:57:52.814Z,73.88
2022-10-30T09:00:22.315Z,73.61
2022-10-30T09:02:50.127Z,72.82
2022-10-30T09:05:18.561Z,72.42
2022-10-30T09:07:46.706Z,71.43
2022-10-30T09:10:15.726Z,71.53
2022-10-30T09:12:43.537Z,70.58
2022-10-30T09:15:11.330Z,70.25
2022-10-30T09:17:40.524Z,70.13
2022-10-30T09:20:09.358Z,69.66
2022-10-30T09:22:41.792Z,70.35
2022-10-30T09:25:10.415Z,69.65
2022-10-30T09:27:39.296Z,69.85
2022-10-30T09:30:08.935Z,69.25
2022-10-30T09:32:36.731Z,69.02
2022-10-30T09:35:06.867Z,68.94
2022-10-30T09:37:35.936Z,68.73
2022-10-30T09:40:04.790Z,68.32
2022-10-30T09:42:48.916Z,67.75
2022-10-30T09:45:53.264Z,67.91
2022-10-30T09:48:51.340Z,68.00
2022-10-30T09:51:44.581Z,67.22
2022-10-30T09:54:24.522Z,67.32
2022-10-30T09:57:02.737Z,66.84
2022-10-30T09:59:47.419Z,66.39
2022-10-30T10:02:35.500Z,66.52
2022-10-30T10:05:16.442Z,66.62
2022-10-30T10:07:51.218Z,67.02
2022-10-30T10:10:26.976Z,66.69
2022-10-30T10:13:01.139Z,66.41
2022-10-30T10:15:42.116Z,66.36
2022-10-30T10:18:20.569Z,66.22
2022-10-30T10:20:55.479Z,65.88
2022-10-30T10:23:33.663Z,65.65
2022-10-30T10:26:19.833Z,65.75
2022-10-30T10:29:06.059Z,64.91
2022-10-30T10:31:48.005Z,64.73
2022-10-30T10:34:41.921Z,64.49
2022-10-30T10:37:24.380Z,64.01
2022-10-30T10:40:19.828Z,63.66
2022-10-30T10:43:07.198Z,63.43
2022-10-30T10:45:49.671Z,62.65
2022-10-30T10:48:52.537Z,61.70
2022-10-30T10:51:26.424Z,61.99
2022-10-30T10:54:00.603Z,61.24
2022-10-30T10:56:37.923Z,61.10
2022-10-30T10:59:16.616Z,61.35
2022-10-30T11:01:53.966Z,60.87
2022-10-30T11:04:35.995Z,60.59
2022-10-30T11:07:21.621Z,60.77
2022-10-30T11:09:54.232Z,60.60
2022-10-30T11:12:36.758Z,60.02
2022-10-30T11:15:22.704Z,59.64
2022-10-30T11:18:01.132Z,59.68
2022-10-30T11:20:42.846Z,59.99
2022-10-30T11:23:41.578Z,59.89
2022-10-30T11:26:34.705Z,59.77
2022-10-30T11:29:13.800Z,59.78
2022-10-30T11:31:43.920Z,59.22
2022-10-30T11:34:25.899Z,58.85
2022-10-30T11:36:56.031Z,59.29
2022-10-30T11:39:27.104Z,59.68
2022-10-30T11:42:04.440Z,60.01
2022-10-30T11:44:39.120Z,58.33
2022-10-30T11:47:10.126Z,58.25
2022-10-30T11:49:46.961Z,57.83
2022-10-30T11:52:19.144Z,57.79
2022-10-30T11:54:52.014Z,57.60
2022-10-30T11:57:33.112Z,57.33
2022-10-30T12:00:09.580Z,57.48
2022-10-30T12:02:44.483Z,56.94
2022-10-30T12:05:38.569Z,56.85
2022-10-30T12:08:23.164Z,56.54
2022-10-30T12:11:02.565Z,56.70
2022-10-30T12:13:39.900Z,56.45
2022-10-30T12:16:16.924Z,56.42
2022-10-30T12:18:58.253Z,56.24
2022-10-30T12:21:28.239Z,56.47
2022-10-30T12:23:58.812Z,56.17
2022-10-30T12:26:27.468Z,56.18
2022-10-30T12:29:01.579Z,55.69
2022-10-30T12:31:42.250Z,55.85
2022-10-30T12:34:39.877Z,55.53
2022-10-30T12:37:15.848Z,55.33
2022-10-30T12:39:58.850Z,55.13
2022-10-30T12:42:27.234Z,54.84
2022-10-30T12:45:14.586Z,55.00
2022-10-30T12:47:52.687Z,54.91
2022-10-30T12:50:27.631Z,55.08
2022-10-30T12:53:07.077Z,55.02
2022-10-30T12:55:41.370Z,55.14
2022-10-30T12:58:21.917Z,55.23
2022-10-30T13:01:01.636Z,56.33
2022-10-30T13:03:37.797Z,55.83
2022-10-30T13:06:17.107Z,55.83
2022-10-30T13:09:01.106Z,56.15
2022-10-30T13:11:41.952Z,56.44
2022-10-30T13:14:20.884Z,56.00
2022-10-30T13:16:51.583Z,55.82
2022-10-30T13:19:20.721Z,55.34
2022-10-30T13:22:00.329Z,55.55
2022-10-30T13:24:51.940Z,56.28
2022-10-30T13:27:29.706Z,55.73
2022-10-30T13:30:05.508Z,56.06
2022-10-30T13:32:57.220Z,56.33
2022-10-30T13:35:41.541Z,56.51
2022-10-30T13:38:36.360Z,57.07
2022-10-30T13:41:17.721Z,56.29
2022-10-30T13:43:59.447Z,56.84
2022-10-30T13:47:04.848Z,56.58
2022-10-30T13:49:54.384Z,56.88
2022-10-30T13:55:04.374Z,57.15
2022-10-30T13:57:43.696Z,56.87
2022-10-30T14:00:20.337Z,56.57
2022-10-30T14:03:20.493Z,56.46
2022-10-30T14:05:56.491Z,56.14
2022-10-30T14:08:43.501Z,56.02
2022-10-30T14:11:14.855Z,56.54
2022-10-30T14:13:53.950Z,56.65
2022-10-30T14:16:43.296Z,56.62
2022-10-30T14:19:13.050Z,56.55
2022-10-30T14:21:43.478Z,57.04
2022-10-30T14:24:19.908Z,56.95
2022-10-30T14:26:53.026Z,56.87
2022-10-30T14:29:51.794Z,57.38
2022-10-30T14:32:43.005Z,58.26
2022-10-30T14:35:40.031Z,57.57
2022-10-30T14:38:30.373Z,57.67
2022-10-30T14:41:43.106Z,58.35
2022-10-30T14:44:29.125Z,58.32
2022-10-30T14:47:25.173Z,58.91
2022-10-30T14:50:02.881Z,59.27
2022-10-30T14:52:50.831Z,59.34
2022-10-30T14:55:32.530Z,59.60
2022-10-30T14:58:27.163Z,59.85
2022-10-30T15:01:28.970Z,60.20
2022-10-30T15:04:21.875Z,61.13
2022-10-30T15:07:04.142Z,62.27
2022-10-30T15:09:46.812Z,61.95
2022-10-30T15:12:52.282Z,62.44
2022-10-30T15:15:22.644Z,63.79
2022-10-30T15:17:54.752Z,64.22
2022-10-30T15:20:26.295Z,63.53
2022-10-30T15:22:58.091Z,64.60
2022-10-30T15:25:34.341Z,63.84
2022-10-30T15:28:02.995Z,63.97
2022-10-30T15:30:32.539Z,64.63
2022-10-30T15:33:00.793Z,64.95
2022-10-30T15:35:31.007Z,65.52
2022-10-30T15:38:05.841Z,66.42
2022-10-30T15:40:36.223Z,67.77
2022-10-30T15:43:07.507Z,68.51
2022-10-30T15:45:40.013Z,68.26
2022-10-30T15:48:21.353Z,69.13
2022-10-30T15:50:59.874Z,70.09
2022-10-30T15:53:39.600Z,70.89
2022-10-30T15:56:17.123Z,70.90
2022-10-30T15:58:54.256Z,72.16
2022-10-30T16:01:28.892Z,71.48
2022-10-30T16:03:56.911Z,72.05
2022-10-30T16:06:28.984Z,72.95
2022-10-30T16:08:57.223Z,72.49
2022-10-30T16:11:27.725Z,72.77
2022-10-30T16:13:55.501Z,73.53
2022-10-30T16:16:29.858Z,74.08
2022-10-30T16:19:03.593Z,74.48
2022-10-30T16:21:35.087Z,74.72
2022-10-30T16:24:05.483Z,74.68
2022-10-30T16:26:38.496Z,74.83
2022-10-30T16:29:22.281Z,75.37
2022-10-30T16:31:52.891Z,75.84
2022-10-30T16:34:27.115Z,76.10
2022-10-30T16:36:57.245Z,76.60
2022-10-30T16:39:27.119Z,76.43
2022-10-30T16:41:57.529Z,76.58
2022-10-30T16:44:29.168Z,77.16
2022-10-30T16:47:04.916Z,77.43
2022-10-30T16:49:36.195Z,77.42
2022-10-30T16:52:07.337Z,77.53
2022-10-30T16:54:40.111Z,77.32
2022-10-30T16:57:18.761Z,77.36
2022-10-30T16:59:51.948Z,77.39
2022-10-30T17:02:24.177Z,77.89
2022-10-30T17:04:58.310Z,78.41
2022-10-30T17:07:28.406Z,78.92
2022-10-30T17:09:58.509Z,78.77
2022-10-30T17:12:28.878Z,79.24
2022-10-30T17:15:12.592Z,79.20
2022-10-30T17:17:43.420Z,79.48
2022-10-30T17:20:28.297Z,79.76
2022-10-30T17:23:13.912Z,79.46
2022-10-30T17:25:42.045Z,79.56
2022-10-30T17:28:28.454Z,79.55
2022-10-30T17:30:57.462Z,80.05
2022-10-30T17:33:36.251Z,80.33
2022-10-30T17:36:05.747Z,80.14
2022-10-30T17:38:34.005Z,80.90
2022-10-30T17:41:02.519Z,80.55
2022-10-30T17:43:32.776Z,80.89
2022-10-30T17:46:01.124Z,80.92
2022-10-30T17:48:31.093Z,80.99
2022-10-30T17:50:58.920Z,80.81
2022-10-30T17:53:27.832Z,81.18
2022-10-30T17:56:02.536Z,81.36
2022-10-30T17:58:35.931Z,81.57
2022-10-30T18:01:08.819Z,81.58
2022-10-30T18:03:43.574Z,81.01
2022-10-30T18:06:22.874Z,80.57
2022-10-30T18:08:58.860Z,80.58
2022-10-30T18:11:29.463Z,81.21
2022-10-30T18:14:02.041Z,80.17
2022-10-30T18:16:31.892Z,80.77
2022-10-30T18:19:01.205Z,81.60
2022-10-30T18:21:29.180Z,80.91
2022-10-30T18:23:57.038Z,80.61
2022-10-30T18:26:27.460Z,80.01
2022-10-30T18:29:00.523Z,80.69
2022-10-30T18:31:39.214Z,81.30
2022-10-30T18:34:21.068Z,81.77
2022-10-30T18:36:54.883Z,82.25
2022-10-30T18:39:28.059Z,82.38
2022-10-30T18:42:03.741Z,81.79
2022-10-30T18:44:37.586Z,82.36
2022-10-30T18:47:22.210Z,82.09
2022-10-30T18:50:02.024Z,81.93
2022-10-30T18:52:39.510Z,82.79
2022-10-30T18:55:22.395Z,82.49
2022-10-30T18:57:55.452Z,82.28
2022-10-30T19:00:39.689Z,82.20
2022-10-30T19:03:22.531Z,82.60
2022-10-30T19:05:56.416Z,83.32
2022-10-30T19:08:27.918Z,83.41
2022-10-30T19:11:00.508Z,83.07
2022-10-30T19:13:39.349Z,82.89
2022-10-30T19:16:20.077Z,82.88
2022-10-30T19:18:55.983Z,82.84
2022-10-30T19:21:30.164Z,82.98
2022-10-30T19:24:07.053Z,83.04
2022-10-30T19:26:35.042Z,83.03
2022-10-30T19:29:02.872Z,83.18
2022-10-30T19:31:30.644Z,83.21
2022-10-30T19:33:58.473Z,83.09
2022-10-30T19:36:31.159Z,83.40
2022-10-30T19:39:01.811Z,83.30
2022-10-30T19:41:32.255Z,83.23
2022-10-30T19:44:00.042Z,83.00
2022-10-30T19:46:27.793Z,83.44
2022-10-30T19:48:57.807Z,82.67
2022-10-30T19:51:26.475Z,82.42
2022-10-30T19:53:55.881Z,81.96
2022-10-30T19:56:24.165Z,81.89
2022-10-30T19:58:52.047Z,82.03
2022-10-30T20:01:19.950Z,82.47
2022-10-30T20:03:47.847Z,82.61
2022-10-30T20:06:16.985Z,82.69
2022-10-30T20:08:44.763Z,82.89
2022-10-30T20:11:14.059Z,83.33
2022-10-30T20:13:41.835Z,83.89
2022-10-30T20:16:11.772Z,83.83
2022-10-30T20:18:39.554Z,84.16
2022-10-30T20:21:12.386Z,84.10
2022-10-30T20:23:40.804Z,83.89
2022-10-30T20:26:23.111Z,84.09
2022-10-30T20:28:51.441Z,83.84
2022-10-30T20:31:19.849Z,84.22
2022-10-30T20:33:47.661Z,84.16
2022-10-30T20:36:16.242Z,83.90
2022-10-30T20:38:44.084Z,84.12
2022-10-30T20:41:23.580Z,84.09
2022-10-30T20:43:51.879Z,84.46
2022-10-30T20:46:20.646Z,84.40
2022-10-30T20:48:48.894Z,84.49
2022-10-30T20:51:16.804Z,84.57
2022-10-30T20:53:44.611Z,84.71
2022-10-30T20:56:12.559Z,84.73
2022-10-30T20:58:42.197Z,84.54
2022-10-30T21:01:10.789Z,84.14
2022-10-30T21:03:38.849Z,83.80
2022-10-30T21:06:09.579Z,82.69
2022-10-30T21:08:37.369Z,83.08
2022-10-30T21:11:07.732Z,82.80
2022-10-30T21:13:36.726Z,82.73
2022-10-30T21:16:09.494Z,82.97
2022-10-30T21:18:37.820Z,83.38
2022-10-30T21:21:08.285Z,83.64
2022-10-30T21:23:36.465Z,83.55
2022-10-30T21:26:06.547Z,83.89
2022-10-30T21:28:35.762Z,83.49
2022-10-30T21:31:07.756Z,83.90
2022-10-30T21:33:38.049Z,84.21
2022-10-30T21:36:12.024Z,84.58
2022-10-30T21:38:42.020Z,84.69
2022-10-30T21:41:10.477Z,84.95
2022-10-30T21:43:38.291Z,84.49
2022-10-30T21:46:08.879Z,84.48
2022-10-30T21:48:36.711Z,84.81
2022-10-30T21:51:10.844Z,84.95
2022-10-30T21:53:39.648Z,85.01
2022-10-30T21:56:10.848Z,85.13
2022-10-30T21:58:38.861Z,85.20
2022-10-30T22:01:13.617Z,85.13
2022-10-30T22:03:41.522Z,84.99
2022-10-30T22:06:12.152Z,85.06
2022-10-30T22:08:40.219Z,85.09
2022-10-30T22:11:11.075Z,85.61
2022-10-30T22:13:39.489Z,85.55
2022-10-30T22:16:12.654Z,85.68
2022-10-30T22:18:41.171Z,85.55
2022-10-30T22:21:11.448Z,85.38
2022-10-30T22:23:41.486Z,84.99
2022-10-30T22:26:13.992Z,84.88
2022-10-30T22:28:43.619Z,85.34
2022-10-30T22:31:16.288Z,84.84
2022-10-30T22:33:45.295Z,85.12
2022-10-30T22:36:17.901Z,85.19
2022-10-30T22:38:46.301Z,85.27
2022-10-30T22:41:18.430Z,85.30
2022-10-30T22:43:49.689Z,85.16
2022-10-30T22:46:20.188Z,84.93
2022-10-30T22:48:47.956Z,85.04
2022-10-30T22:51:19.171Z,84.37
2022-10-30T22:53:49.417Z,84.55
2022-10-30T22:56:20.145Z,84.13
2022-10-30T22:58:50.250Z,83.54
2022-10-30T23:01:23.261Z,83.61
2022-10-30T23:03:52.058Z,83.50
2022-10-30T23:06:21.813Z,83.99
2022-10-30T23:08:50.509Z,84.85
2022-10-30T23:11:18.325Z,85.12
2022-10-30T23:13:46.421Z,85.15
2022-10-30T23:16:16.746Z,85.36
2022-10-30T23:18:46.831Z,85.17
2022-10-30T23:21:17.335Z,85.31
2022-10-30T23:23:46.601Z,85.15
2022-10-30T23:26:17.481Z,85.38
2022-10-30T23:28:46.874Z,85.42
2022-10-30T23:31:23.090Z,85.39
2022-10-30T23:33:56.233Z,85.36
2022-10-30T23:36:25.002Z,85.32
2022-10-30T23:38:53.885Z,85.39
2022-10-30T23:41:22.225Z,85.37
2022-10-30T23:43:54.182Z,85.48
2022-10-30T23:46:22.046Z,84.87
2022-10-30T23:48:50.267Z,85.33
2022-10-30T23:51:22.053Z,85.40
2022-10-30T23:53:50.761Z,85.76
2022-10-30T23:56:19.294Z,85.88
2022-10-30T23:58:50.073Z,85.79
